createdAt,value
2022-09-10T00:01:02.000Z,1002.2
2022-09-10T00:02:18.000Z,1002.3
2022-09-10T00:03:34.000Z,1002.2
2022-09-10T00:04:50.000Z,1002.2
2022-09-10T00:06:06.000Z,1002.2
2022-09-10T00:07:23.000Z,1002.2
2022-09-10T00:08:39.000Z,1002.2
2022-09-10T00:09:55.000Z,1002.1
2022-09-10T00:11:11.000Z,1002.1
2022-09-10T00:12:27.000Z,1002.1
2022-09-10T00:13:43.000Z,1002.1
2022-09-10T00:14:59.000Z,1002.1
2022-09-10T00:16:15.000Z,1002.1
2022-09-10T00:17:31.000Z,1002.1
2022-09-10T00:18:47.000Z,1002.1
2022-09-10T00:20:04.000Z,1002.1
2022-09-10T00:21:20.000Z,1002.1
2022-09-10T00:22:36.000Z,1002.1
2022-09-10T00:23:52.000Z,1002.1
2022-09-10T00:25:08.000Z,1002.1
2022-09-10T00:26:24.000Z,1002.1
2022-09-10T00:27:41.000Z,1002.1
2022-09-10T00:28:57.000Z,1002.1
2022-09-10T00:30:12.000Z,1002.1
2022-09-10T00:31:28.000Z,1002.1
2022-09-10T00:32:44.000Z,1002.1
2022-09-10T00:34:01.000Z,1002.1
2022-09-10T00:35:17.000Z,1002.1
2022-09-10T00:36:33.000Z,1002
2022-09-10T00:37:49.000Z,1002.1
2022-09-10T00:39:05.000Z,1002.1
2022-09-10T00:40:22.000Z,1002.1
2022-09-10T00:41:38.000Z,1002.1
2022-09-10T00:42:54.000Z,1002.1
2022-09-10T00:44:10.000Z,1002.1
2022-09-10T00:45:26.000Z,1002.2
2022-09-10T00:46:42.000Z,1002.1
2022-09-10T00:47:58.000Z,1002.2
2022-09-10T00:49:14.000Z,1002.2
2022-09-10T00:50:30.000Z,1002.2
2022-09-10T00:51:46.000Z,1002.3
2022-09-10T00:53:02.000Z,1002.2
2022-09-10T00:54:19.000Z,1002.2
2022-09-10T00:55:35.000Z,1002.2
2022-09-10T00:56:51.000Z,1002.2
2022-09-10T00:58:07.000Z,1002.2
2022-09-10T00:59:23.000Z,1002.3
2022-09-10T01:00:40.000Z,1002.3
2022-09-10T01:01:56.000Z,1002.2
2022-09-10T01:03:11.000Z,1002.3
2022-09-10T01:04:27.000Z,1002.3
2022-09-10T01:05:43.000Z,1002.3
2022-09-10T01:07:00.000Z,1002.2
2022-09-10T01:08:16.000Z,1002.2
2022-09-10T01:09:32.000Z,1002.2
2022-09-10T01:10:48.000Z,1002.2
2022-09-10T01:12:04.000Z,1002.2
2022-09-10T01:13:21.000Z,1002.2
2022-09-10T01:14:37.000Z,1002.2
2022-09-10T01:15:53.000Z,1002.2
2022-09-10T01:17:09.000Z,1002.2
2022-09-10T01:18:25.000Z,1002.2
2022-09-10T01:19:40.000Z,1002.2
2022-09-10T01:20:57.000Z,1002.2
2022-09-10T01:22:13.000Z,1002.2
2022-09-10T01:23:29.000Z,1002.3
2022-09-10T01:24:45.000Z,1002.3
2022-09-10T01:26:01.000Z,1002.3
2022-09-10T01:27:17.000Z,1002.2
2022-09-10T01:28:33.000Z,1002.3
2022-09-10T01:29:49.000Z,1002.3
2022-09-10T01:31:05.000Z,1002.3
2022-09-10T01:32:21.000Z,1002.2
2022-09-10T01:33:38.000Z,1002.3
2022-09-10T01:34:54.000Z,1002.4
2022-09-10T01:36:10.000Z,1002.3
2022-09-10T01:37:26.000Z,1002.4
2022-09-10T01:38:42.000Z,1002.4
2022-09-10T01:39:59.000Z,1002.4
2022-09-10T01:41:15.000Z,1002.4
2022-09-10T01:42:31.000Z,1002.3
2022-09-10T01:43:46.000Z,1002.4
2022-09-10T01:45:02.000Z,1002.3
2022-09-10T01:46:18.000Z,1002.4
2022-09-10T01:47:35.000Z,1002.4
2022-09-10T01:48:51.000Z,1002.3
2022-09-10T01:50:07.000Z,1002.4
2022-09-10T01:51:23.000Z,1002.4
2022-09-10T01:52:39.000Z,1002.4
2022-09-10T01:53:56.000Z,1002.4
2022-09-10T01:55:12.512Z,1002.4
2022-09-10T01:56:28.000Z,1002.3
2022-09-10T01:57:44.000Z,1002.4
2022-09-10T01:59:00.000Z,1002.4
2022-09-10T02:00:16.000Z,1002.4
2022-09-10T02:01:32.000Z,1002.4
2022-09-10T02:02:48.000Z,1002.3
2022-09-10T02:04:04.000Z,1002.4
2022-09-10T02:05:20.000Z,1002.3
2022-09-10T02:06:37.000Z,1002.4
2022-09-10T02:07:53.000Z,1002.4
2022-09-10T02:09:09.000Z,1002.3
2022-09-10T02:10:25.000Z,1002.4
2022-09-10T02:11:41.000Z,1002.4
2022-09-10T02:12:57.000Z,1002.4
2022-09-10T02:14:14.000Z,1002.3
2022-09-10T02:15:30.000Z,1002.4
2022-09-10T02:16:45.000Z,1002.4
2022-09-10T02:18:01.000Z,1002.4
2022-09-10T02:19:17.000Z,1002.4
2022-09-10T02:20:34.000Z,1002.3
2022-09-10T02:21:50.000Z,1002.4
2022-09-10T02:23:06.000Z,1002.4
2022-09-10T02:24:22.000Z,1002.4
2022-09-10T02:25:38.000Z,1002.4
2022-09-10T02:26:55.000Z,1002.4
2022-09-10T02:28:11.000Z,1002.5
2022-09-10T02:29:27.000Z,1002.4
2022-09-10T02:30:43.000Z,1002.4
2022-09-10T02:31:59.000Z,1002.3
2022-09-10T02:33:15.000Z,1002.4
2022-09-10T02:34:31.000Z,1002.3
2022-09-10T02:35:47.000Z,1002.4
2022-09-10T02:37:03.000Z,1002.4
2022-09-10T02:38:19.000Z,1002.4
2022-09-10T02:39:35.000Z,1002.4
2022-09-10T02:40:52.000Z,1002.5
2022-09-10T02:42:08.000Z,1002.4
2022-09-10T02:43:24.000Z,1002.4
2022-09-10T02:44:40.000Z,1002.5
2022-09-10T02:45:56.000Z,1002.5
2022-09-10T02:47:13.000Z,1002.4
2022-09-10T02:48:29.000Z,1002.4
2022-09-10T02:49:45.000Z,1002.4
2022-09-10T02:51:00.000Z,1002.4
2022-09-10T02:52:16.000Z,1002.4
2022-09-10T02:53:33.000Z,1002.4
2022-09-10T02:54:49.000Z,1002.4
2022-09-10T02:56:05.000Z,1002.5
2022-09-10T02:57:21.000Z,1002.4
2022-09-10T02:58:37.000Z,1002.5
2022-09-10T02:59:53.000Z,1002.4
2022-09-10T03:01:10.000Z,1002.4
2022-09-10T03:02:26.000Z,1002.5
2022-09-10T03:03:42.000Z,1002.4
2022-09-10T03:04:58.000Z,1002.4
2022-09-10T03:06:14.000Z,1002.4
2022-09-10T03:07:30.000Z,1002.4
2022-09-10T03:08:46.000Z,1002.4
2022-09-10T03:10:02.000Z,1002.4
2022-09-10T03:11:18.000Z,1002.4
2022-09-10T03:12:34.000Z,1002.4
2022-09-10T03:13:51.000Z,1002.4
2022-09-10T03:15:07.000Z,1002.4
2022-09-10T03:16:23.000Z,1002.4
2022-09-10T03:17:39.000Z,1002.4
2022-09-10T03:18:55.000Z,1002.4
2022-09-10T03:20:12.000Z,1002.4
2022-09-10T03:21:28.000Z,1002.4
2022-09-10T03:22:44.000Z,1002.4
2022-09-10T03:23:59.000Z,1002.4
2022-09-10T03:25:15.000Z,1002.4
2022-09-10T03:26:31.000Z,1002.5
2022-09-10T03:27:48.000Z,1002.4
2022-09-10T03:29:04.000Z,1002.4
2022-09-10T03:30:20.000Z,1002.4
2022-09-10T03:31:36.000Z,1002.4
2022-09-10T03:32:52.000Z,1002.4
2022-09-10T03:34:09.000Z,1002.4
2022-09-10T03:35:25.000Z,1002.4
2022-09-10T03:36:41.000Z,1002.5
2022-09-10T03:37:57.000Z,1002.5
2022-09-10T03:39:13.000Z,1002.3
2022-09-10T03:40:29.000Z,1002.4
2022-09-10T03:41:45.000Z,1002.4
2022-09-10T03:43:01.000Z,1002.4
2022-09-10T03:44:17.000Z,1002.4
2022-09-10T03:45:33.000Z,1002.3
2022-09-10T03:46:50.000Z,1002.4
2022-09-10T03:48:06.000Z,1002.4
2022-09-10T03:49:22.000Z,1002.4
2022-09-10T03:50:38.000Z,1002.4
2022-09-10T03:51:54.000Z,1002.4
2022-09-10T03:53:10.000Z,1002.5
2022-09-10T03:54:27.000Z,1002.4
2022-09-10T03:55:43.000Z,1002.5
2022-09-10T03:56:58.000Z,1002.4
2022-09-10T03:58:14.000Z,1002.4
2022-09-10T03:59:30.000Z,1002.5
2022-09-10T04:00:47.000Z,1002.5
2022-09-10T04:02:03.000Z,1002.5
2022-09-10T04:03:19.000Z,1002.4
2022-09-10T04:04:35.000Z,1002.4
2022-09-10T04:05:51.000Z,1002.4
2022-09-10T04:07:08.000Z,1002.5
2022-09-10T04:08:24.000Z,1002.5
2022-09-10T04:09:40.000Z,1002.4
2022-09-10T04:10:56.838Z,1002.4
2022-09-10T04:12:12.000Z,1002.4
2022-09-10T04:13:27.000Z,1002.4
2022-09-10T04:14:44.000Z,1002.5
2022-09-10T04:16:00.000Z,1002.4
2022-09-10T04:17:16.000Z,1002.5
2022-09-10T04:18:32.000Z,1002.4
2022-09-10T04:19:48.000Z,1002.4
2022-09-10T04:21:05.000Z,1002.5
2022-09-10T04:22:21.000Z,1002.4
2022-09-10T04:23:37.000Z,1002.5
2022-09-10T04:24:53.000Z,1002.5
2022-09-10T04:26:09.000Z,1002.4
2022-09-10T04:27:26.000Z,1002.5
2022-09-10T04:28:42.000Z,1002.5
2022-09-10T04:29:57.000Z,1002.5
2022-09-10T04:31:13.000Z,1002.4
2022-09-10T04:32:29.000Z,1002.4
2022-09-10T04:33:46.000Z,1002.5
2022-09-10T04:35:02.000Z,1002.5
2022-09-10T04:36:18.000Z,1002.5
2022-09-10T04:37:34.000Z,1002.5
2022-09-10T04:38:50.000Z,1002.5
2022-09-10T04:40:06.000Z,1002.5
2022-09-10T04:41:23.000Z,1002.5
2022-09-10T04:42:39.000Z,1002.5
2022-09-10T04:43:55.000Z,1002.6
2022-09-10T04:45:11.000Z,1002.5
2022-09-10T04:46:27.165Z,1002.6
2022-09-10T04:47:43.000Z,1002.5
2022-09-10T04:48:59.000Z,1002.6
2022-09-10T04:50:15.000Z,1002.5
2022-09-10T04:51:31.000Z,1002.5
2022-09-10T04:52:47.000Z,1002.5
2022-09-10T04:54:04.000Z,1002.5
2022-09-10T04:55:20.000Z,1002.6
2022-09-10T04:56:36.000Z,1002.5
2022-09-10T04:57:52.000Z,1002.5
2022-09-10T04:59:08.000Z,1002.5
2022-09-10T05:00:25.000Z,1002.6
2022-09-10T05:01:41.000Z,1002.5
2022-09-10T05:02:56.000Z,1002.6
2022-09-10T05:04:12.000Z,1002.5
2022-09-10T05:05:28.000Z,1002.6
2022-09-10T05:06:44.000Z,1002.5
2022-09-10T05:08:01.000Z,1002.6
2022-09-10T05:09:17.000Z,1002.6
2022-09-10T05:10:33.000Z,1002.7
2022-09-10T05:11:49.000Z,1002.6
2022-09-10T05:13:05.000Z,1002.6
2022-09-10T05:14:22.000Z,1002.6
2022-09-10T05:15:38.000Z,1002.6
2022-09-10T05:16:54.000Z,1002.6
2022-09-10T05:18:10.000Z,1002.5
2022-09-10T05:19:25.000Z,1002.6
2022-09-10T05:20:42.000Z,1002.6
2022-09-10T05:21:58.000Z,1002.6
2022-09-10T05:23:14.000Z,1002.6
2022-09-10T05:24:30.000Z,1002.7
2022-09-10T05:25:46.000Z,1002.6
2022-09-10T05:27:02.000Z,1002.6
2022-09-10T05:28:19.000Z,1002.6
2022-09-10T05:29:35.000Z,1002.7
2022-09-10T05:30:51.000Z,1002.6
2022-09-10T05:32:07.000Z,1002.7
2022-09-10T05:33:23.000Z,1002.7
2022-09-10T05:34:40.000Z,1002.8
2022-09-10T05:35:55.000Z,1002.7
2022-09-10T05:37:11.000Z,1002.7
2022-09-10T05:38:27.000Z,1002.8
2022-09-10T05:39:43.000Z,1002.7
2022-09-10T05:41:00.000Z,1002.7
2022-09-10T05:42:15.000Z,1002.7
2022-09-10T05:43:31.000Z,1002.8
2022-09-10T05:44:47.000Z,1002.8
2022-09-10T05:46:03.000Z,1002.8
2022-09-10T05:47:19.000Z,1002.8
2022-09-10T05:48:36.000Z,1002.8
2022-09-10T05:49:52.000Z,1002.8
2022-09-10T05:51:08.000Z,1002.9
2022-09-10T05:52:24.000Z,1002.8
2022-09-10T05:53:40.000Z,1002.8
2022-09-10T05:54:57.000Z,1002.8
2022-09-10T05:56:13.000Z,1002.8
2022-09-10T05:57:29.000Z,1002.9
2022-09-10T05:58:44.000Z,1002.8
2022-09-10T06:00:00.000Z,1002.8
2022-09-10T06:01:17.000Z,1002.9
2022-09-10T06:02:33.000Z,1002.9
2022-09-10T06:03:49.000Z,1002.9
2022-09-10T06:05:05.000Z,1002.9
2022-09-10T06:06:21.000Z,1002.8
2022-09-10T06:07:38.000Z,1002.9
2022-09-10T06:08:54.000Z,1002.9
2022-09-10T06:10:10.610Z,1002.9
2022-09-10T06:11:26.000Z,1002.8
2022-09-10T06:12:42.000Z,1002.8
2022-09-10T06:13:58.000Z,1002.9
2022-09-10T06:15:14.000Z,1002.9
2022-09-10T06:16:30.000Z,1002.9
2022-09-10T06:17:46.000Z,1002.8
2022-09-10T06:19:02.000Z,1002.9
2022-09-10T06:20:18.000Z,1003
2022-09-10T06:21:35.000Z,1002.9
2022-09-10T06:22:51.000Z,1002.9
2022-09-10T06:24:07.000Z,1003
2022-09-10T06:25:23.000Z,1003
2022-09-10T06:26:39.000Z,1003
2022-09-10T06:27:56.000Z,1003
2022-09-10T06:29:12.000Z,1003.1
2022-09-10T06:30:28.000Z,1003.1
2022-09-10T06:31:43.000Z,1003.1
2022-09-10T06:32:59.000Z,1003.1
2022-09-10T06:34:15.000Z,1003.1
2022-09-10T06:35:32.000Z,1003.1
2022-09-10T06:36:48.000Z,1003.1
2022-09-10T06:38:04.000Z,1003
2022-09-10T06:39:20.000Z,1003.1
2022-09-10T06:40:36.000Z,1003.1
2022-09-10T06:41:53.000Z,1003.1
2022-09-10T06:43:09.000Z,1003.2
2022-09-10T06:44:25.000Z,1003.2
2022-09-10T06:45:41.000Z,1003.1
2022-09-10T06:46:57.000Z,1003.1
2022-09-10T06:48:13.000Z,1003.2
2022-09-10T06:49:29.000Z,1003.2
2022-09-10T06:50:45.000Z,1003.2
2022-09-10T06:52:01.000Z,1003.1
2022-09-10T06:53:17.000Z,1003.1
2022-09-10T06:54:33.000Z,1003.2
2022-09-10T06:55:50.000Z,1003.2
2022-09-10T06:57:06.000Z,1003.2
2022-09-10T06:58:22.000Z,1003.2
2022-09-10T06:59:38.000Z,1003.2
2022-09-10T07:00:54.000Z,1003.2
2022-09-10T07:02:11.000Z,1003.3
2022-09-10T07:03:27.000Z,1003.2
2022-09-10T07:04:42.000Z,1003.2
2022-09-10T07:05:58.000Z,1003.3
2022-09-10T07:07:14.000Z,1003.3
2022-09-10T07:08:31.000Z,1003.1
2022-09-10T07:09:47.000Z,1003.3
2022-09-10T07:11:03.000Z,1003.3
2022-09-10T07:12:19.000Z,1003.3
2022-09-10T07:13:35.000Z,1003.3
2022-09-10T07:14:51.000Z,1003.3
2022-09-10T07:16:08.000Z,1003.3
2022-09-10T07:17:24.000Z,1003.3
2022-09-10T07:18:40.000Z,1003.3
2022-09-10T07:19:56.000Z,1003.3
2022-09-10T07:21:11.000Z,1003.3
2022-09-10T07:22:28.000Z,1003.3
2022-09-10T07:23:44.000Z,1003.3
2022-09-10T07:25:00.000Z,1003.3
2022-09-10T07:26:16.000Z,1003.3
2022-09-10T07:27:32.000Z,1003.3
2022-09-10T07:28:49.000Z,1003.3
2022-09-10T07:30:05.000Z,1003.3
2022-09-10T07:31:21.683Z,1003.3
2022-09-10T07:32:37.000Z,1003.3
2022-09-10T07:33:53.000Z,1003.3
2022-09-10T07:35:10.000Z,1003.2
2022-09-10T07:36:26.000Z,1003.2
2022-09-10T07:37:41.000Z,1003.3
2022-09-10T07:38:57.000Z,1003.2
2022-09-10T07:40:13.000Z,1003.2
2022-09-10T07:41:29.000Z,1003.2
2022-09-10T07:42:46.000Z,1003.2
2022-09-10T07:44:02.000Z,1003.2
2022-09-10T07:45:18.000Z,1003.2
2022-09-10T07:46:34.000Z,1003.2
2022-09-10T07:47:50.000Z,1003.2
2022-09-10T07:49:07.000Z,1003.2
2022-09-10T07:50:23.000Z,1003.2
2022-09-10T07:51:39.000Z,1003.2
2022-09-10T07:52:55.000Z,1003.2
2022-09-10T07:54:10.000Z,1003.3
2022-09-10T07:55:27.000Z,1003.3
2022-09-10T07:56:43.000Z,1003.3
2022-09-10T07:57:59.000Z,1003.2
2022-09-10T07:59:15.000Z,1003.3
2022-09-10T08:00:31.000Z,1003.2
2022-09-10T08:01:47.000Z,1003.2
2022-09-10T08:03:04.000Z,1003.2
2022-09-10T08:04:20.000Z,1003.3
2022-09-10T08:05:36.000Z,1003.2
2022-09-10T08:06:52.000Z,1003.2
2022-09-10T08:08:08.000Z,1003.3
2022-09-10T08:09:25.000Z,1003.3
2022-09-10T08:10:40.000Z,1003.3
2022-09-10T08:11:56.000Z,1003.3
2022-09-10T08:13:12.000Z,1003.3
2022-09-10T08:14:28.000Z,1003.3
2022-09-10T08:15:45.000Z,1003.3
2022-09-10T08:17:01.000Z,1003.3
2022-09-10T08:18:17.000Z,1003.3
2022-09-10T08:19:33.000Z,1003.3
2022-09-10T08:20:49.000Z,1003.4
2022-09-10T08:22:05.000Z,1003.4
2022-09-10T08:23:22.000Z,1003.4
2022-09-10T08:24:38.000Z,1003.4
2022-09-10T08:25:54.000Z,1003.3
2022-09-10T08:27:09.000Z,1003.4
2022-09-10T08:28:25.000Z,1003.4
2022-09-10T08:29:42.000Z,1003.5
2022-09-10T08:30:58.000Z,1003.4
2022-09-10T08:32:14.000Z,1003.4
2022-09-10T08:33:30.000Z,1003.4
2022-09-10T08:34:46.000Z,1003.5
2022-09-10T08:36:03.000Z,1003.5
2022-09-10T08:37:19.000Z,1003.5
2022-09-10T08:38:35.000Z,1003.5
2022-09-10T08:39:51.000Z,1003.5
2022-09-10T08:41:07.000Z,1003.5
2022-09-10T08:42:23.000Z,1003.4
2022-09-10T08:43:39.000Z,1003.5
2022-09-10T08:44:55.000Z,1003.5
2022-09-10T08:46:11.000Z,1003.5
2022-09-10T08:47:27.000Z,1003.4
2022-09-10T08:48:43.000Z,1003.4
2022-09-10T08:50:00.000Z,1003.5
2022-09-10T08:51:16.000Z,1003.5
2022-09-10T08:52:32.000Z,1003.5
2022-09-10T08:53:48.000Z,1003.6
2022-09-10T08:55:04.000Z,1003.5
2022-09-10T08:56:21.000Z,1003.5
2022-09-10T08:57:37.000Z,1003.5
2022-09-10T08:58:53.000Z,1003.5
2022-09-10T09:00:08.000Z,1003.6
2022-09-10T09:01:24.000Z,1003.6
2022-09-10T09:02:41.000Z,1003.6
2022-09-10T09:03:57.000Z,1003.6
2022-09-10T09:05:13.000Z,1003.6
2022-09-10T09:06:29.000Z,1003.5
2022-09-10T09:07:45.000Z,1003.6
2022-09-10T09:09:01.000Z,1003.6
2022-09-10T09:10:18.000Z,1003.6
2022-09-10T09:11:34.000Z,1003.6
2022-09-10T09:12:50.000Z,1003.6
2022-09-10T09:14:06.000Z,1003.7
2022-09-10T09:15:22.000Z,1003.6
2022-09-10T09:16:38.000Z,1003.6
2022-09-10T09:17:54.000Z,1003.6
2022-09-10T09:19:10.000Z,1003.6
2022-09-10T09:20:26.000Z,1003.6
2022-09-10T09:21:42.000Z,1003.6
2022-09-10T09:22:59.000Z,1003.6
2022-09-10T09:24:15.000Z,1003.6
2022-09-10T09:25:31.000Z,1003.5
2022-09-10T09:26:47.000Z,1003.5
2022-09-10T09:28:03.000Z,1003.5
2022-09-10T09:29:19.000Z,1003.5
2022-09-10T09:30:36.000Z,1003.5
2022-09-10T09:31:52.000Z,1003.5
2022-09-10T09:33:07.000Z,1003.4
2022-09-10T09:34:23.000Z,1003.4
2022-09-10T09:35:39.000Z,1003.3
2022-09-10T09:36:56.000Z,1003.4
2022-09-10T09:38:12.000Z,1003.4
2022-09-10T09:39:28.000Z,1003.4
2022-09-10T09:40:44.000Z,1003.3
2022-09-10T09:42:00.000Z,1003.4
2022-09-10T09:43:17.000Z,1003.4
2022-09-10T09:44:33.000Z,1003.4
2022-09-10T09:45:49.000Z,1003.3
2022-09-10T09:47:05.000Z,1003.4
2022-09-10T09:48:21.000Z,1003.4
2022-09-10T09:49:36.000Z,1003.5
2022-09-10T09:50:53.000Z,1003.5
2022-09-10T09:52:09.000Z,1003.5
2022-09-10T09:53:25.000Z,1003.5
2022-09-10T09:54:41.000Z,1003.5
2022-09-10T09:55:57.000Z,1003.5
2022-09-10T09:57:13.000Z,1003.5
2022-09-10T09:58:29.000Z,1003.5
2022-09-10T09:59:45.000Z,1003.3
2022-09-10T10:01:01.000Z,1003.3
2022-09-10T10:02:17.000Z,1003.4
2022-09-10T10:03:34.000Z,1003.4
2022-09-10T10:04:50.000Z,1003.4
2022-09-10T10:06:06.000Z,1003.4
2022-09-10T10:07:22.000Z,1003.4
2022-09-10T10:08:38.000Z,1003.4
2022-09-10T10:09:55.000Z,1003.4
2022-09-10T10:11:11.000Z,1003.4
2022-09-10T10:12:27.000Z,1003.3
2022-09-10T10:13:42.000Z,1003.3
2022-09-10T10:14:58.000Z,1003.3
2022-09-10T10:16:14.000Z,1003.3
2022-09-10T10:17:31.000Z,1003.3
2022-09-10T10:18:47.000Z,1003.3
2022-09-10T10:20:03.000Z,1003.3
2022-09-10T10:21:19.000Z,1003.3
2022-09-10T10:22:35.000Z,1003.4
2022-09-10T10:23:52.000Z,1003.4
2022-09-10T10:25:08.000Z,1003.4
2022-09-10T10:26:24.000Z,1003.4
2022-09-10T10:27:40.000Z,1003.4
2022-09-10T10:28:56.000Z,1003.4
2022-09-10T10:30:12.000Z,1003.3
2022-09-10T10:31:28.000Z,1003.4
2022-09-10T10:32:44.000Z,1003.3
2022-09-10T10:34:00.000Z,1003.3
2022-09-10T10:35:16.000Z,1003.4
2022-09-10T10:36:32.000Z,1003.4
2022-09-10T10:37:49.000Z,1003.4
2022-09-10T10:39:05.000Z,1003.4
2022-09-10T10:40:21.000Z,1003.3
2022-09-10T10:41:37.000Z,1003.4
2022-09-10T10:42:53.000Z,1003.3
2022-09-10T10:44:10.000Z,1003.4
2022-09-10T10:45:26.000Z,1003.4
2022-09-10T10:46:41.000Z,1003.4
2022-09-10T10:47:57.000Z,1003.4
2022-09-10T10:49:13.000Z,1003.4
2022-09-10T10:50:30.000Z,1003.3
2022-09-10T10:51:46.000Z,1003.3
2022-09-10T10:53:02.000Z,1003.3
2022-09-10T10:54:18.000Z,1003.3
2022-09-10T10:55:34.000Z,1003.4
2022-09-10T10:56:50.000Z,1003.3
2022-09-10T10:58:07.000Z,1003.3
2022-09-10T10:59:23.000Z,1003.3
2022-09-10T11:00:39.000Z,1003.4
2022-09-10T11:01:55.000Z,1003.3
2022-09-10T11:03:10.000Z,1003.3
2022-09-10T11:04:27.000Z,1003.3
2022-09-10T11:05:43.000Z,1003.4
2022-09-10T11:06:59.000Z,1003.3
2022-09-10T11:08:15.000Z,1003.3
2022-09-10T11:09:31.000Z,1003.3
2022-09-10T11:10:48.000Z,1003.3
2022-09-10T11:12:04.000Z,1003.3
2022-09-10T11:13:20.000Z,1003.3
2022-09-10T11:14:36.000Z,1003.3
2022-09-10T11:15:52.000Z,1003.3
2022-09-10T11:17:09.000Z,1003.3
2022-09-10T11:18:25.000Z,1003.2
2022-09-10T11:19:40.000Z,1003.3
2022-09-10T11:20:56.000Z,1003.3
2022-09-10T11:22:12.000Z,1003.5
2022-09-10T11:23:28.000Z,1003.4
2022-09-10T11:24:45.000Z,1003.4
2022-09-10T11:26:01.000Z,1003.4
2022-09-10T11:27:17.000Z,1003.4
2022-09-10T11:28:33.000Z,1003.4
2022-09-10T11:29:49.000Z,1003.5
2022-09-10T11:31:06.000Z,1003.4
2022-09-10T11:32:22.000Z,1003.5
2022-09-10T11:33:38.000Z,1003.5
2022-09-10T11:34:54.000Z,1003.4
2022-09-10T11:36:09.000Z,1003.5
2022-09-10T11:37:26.000Z,1003.4
2022-09-10T11:38:42.000Z,1003.5
2022-09-10T11:39:58.000Z,1003.4
2022-09-10T11:41:14.000Z,1003.5
2022-09-10T11:42:30.000Z,1003.4
2022-09-10T11:43:46.000Z,1003.4
2022-09-10T11:45:03.363Z,1003.4
2022-09-10T11:46:19.000Z,1003.4
2022-09-10T11:47:35.000Z,1003.4
2022-09-10T11:48:51.000Z,1003.4
2022-09-10T11:50:07.000Z,1003.4
2022-09-10T11:51:24.000Z,1003.5
2022-09-10T11:52:39.000Z,1003.4
2022-09-10T11:53:55.000Z,1003.5
2022-09-10T11:55:11.000Z,1003.4
2022-09-10T11:56:27.000Z,1003.3
2022-09-10T11:57:44.000Z,1003.3
2022-09-10T11:59:00.000Z,1003.3
2022-09-10T12:00:16.000Z,1003.4
2022-09-10T12:01:32.000Z,1003.3
2022-09-10T12:02:48.000Z,1003.3
2022-09-10T12:04:04.000Z,1003.4
2022-09-10T12:05:21.000Z,1003.4
2022-09-10T12:06:37.000Z,1003.3
2022-09-10T12:07:53.000Z,1003.2
2022-09-10T12:09:08.000Z,1003.2
2022-09-10T12:10:24.000Z,1003.2
2022-09-10T12:11:41.000Z,1003.2
2022-09-10T12:12:57.000Z,1003.2
2022-09-10T12:14:13.000Z,1003.2
2022-09-10T12:15:29.000Z,1003.3
2022-09-10T12:16:45.000Z,1003.3
2022-09-10T12:18:02.000Z,1003.3
2022-09-10T12:19:18.000Z,1003.2
2022-09-10T12:20:34.000Z,1003.2
2022-09-10T12:21:50.000Z,1003.3
2022-09-10T12:23:06.000Z,1003.2
2022-09-10T12:24:22.000Z,1003.3
2022-09-10T12:25:38.000Z,1003.3
2022-09-10T12:26:54.000Z,1003.4
2022-09-10T12:28:10.000Z,1003.3
2022-09-10T12:29:26.000Z,1003.3
2022-09-10T12:30:42.000Z,1003.2
2022-09-10T12:31:59.339Z,1003.4
2022-09-10T12:33:15.000Z,1003.3
2022-09-10T12:34:31.000Z,1003.4
2022-09-10T12:35:47.000Z,1003.4
2022-09-10T12:37:03.000Z,1003.4
2022-09-10T12:38:20.000Z,1003.3
2022-09-10T12:39:36.000Z,1003.4
2022-09-10T12:40:52.000Z,1003.4
2022-09-10T12:42:07.000Z,1003.4
2022-09-10T12:43:23.000Z,1003.3
2022-09-10T12:44:40.000Z,1003.4
2022-09-10T12:45:56.000Z,1003.4
2022-09-10T12:47:12.000Z,1003.4
2022-09-10T12:48:28.000Z,1003.5
2022-09-10T12:49:44.000Z,1003.5
2022-09-10T12:51:00.000Z,1003.5
2022-09-10T12:52:17.000Z,1003.5
2022-09-10T12:53:33.000Z,1003.6
2022-09-10T12:54:49.000Z,1003.6
2022-09-10T12:56:05.000Z,1003.6
2022-09-10T12:57:21.000Z,1003.5
2022-09-10T12:58:37.000Z,1003.6
2022-09-10T12:59:53.000Z,1003.6
2022-09-10T13:01:09.000Z,1003.6
2022-09-10T13:02:25.000Z,1003.6
2022-09-10T13:03:41.000Z,1003.5
2022-09-10T13:04:58.000Z,1003.5
2022-09-10T13:06:14.000Z,1003.6
2022-09-10T13:07:30.000Z,1003.6
2022-09-10T13:08:46.000Z,1003.6
2022-09-10T13:10:02.000Z,1003.6
2022-09-10T13:11:18.000Z,1003.6
2022-09-10T13:12:35.000Z,1003.6
2022-09-10T13:13:51.000Z,1003.6
2022-09-10T13:15:06.000Z,1003.6
2022-09-10T13:16:22.000Z,1003.6
2022-09-10T13:17:38.000Z,1003.6
2022-09-10T13:18:55.000Z,1003.6
2022-09-10T13:20:11.000Z,1003.6
2022-09-10T13:21:27.000Z,1003.7
2022-09-10T13:22:43.000Z,1003.6
2022-09-10T13:23:59.000Z,1003.7
2022-09-10T13:25:16.000Z,1003.6
2022-09-10T13:26:32.000Z,1003.6
2022-09-10T13:27:48.000Z,1003.6
2022-09-10T13:29:04.815Z,1003.6
2022-09-10T13:30:20.000Z,1003.6
2022-09-10T13:31:35.000Z,1003.5
2022-09-10T13:32:52.000Z,1003.5
2022-09-10T13:34:08.000Z,1003.5
2022-09-10T13:35:24.000Z,1003.5
2022-09-10T13:36:40.000Z,1003.5
2022-09-10T13:37:56.000Z,1003.5
2022-09-10T13:39:13.000Z,1003.6
2022-09-10T13:40:29.000Z,1003.5
2022-09-10T13:41:45.000Z,1003.5
2022-09-10T13:43:01.000Z,1003.5
2022-09-10T13:44:17.000Z,1003.5
2022-09-10T13:45:34.000Z,1003.5
2022-09-10T13:46:50.000Z,1003.5
2022-09-10T13:48:05.000Z,1003.5
2022-09-10T13:49:21.000Z,1003.5
2022-09-10T13:50:37.000Z,1003.4
2022-09-10T13:51:53.000Z,1003.4
2022-09-10T13:53:10.000Z,1003.5
2022-09-10T13:54:26.000Z,1003.5
2022-09-10T13:55:42.000Z,1003.5
2022-09-10T13:56:58.000Z,1003.5
2022-09-10T13:58:14.000Z,1003.5
2022-09-10T13:59:31.000Z,1003.5
2022-09-10T14:00:47.000Z,1003.5
2022-09-10T14:02:03.000Z,1003.5
2022-09-10T14:03:19.000Z,1003.5
2022-09-10T14:04:34.000Z,1003.5
2022-09-10T14:05:51.000Z,1003.4
2022-09-10T14:07:07.000Z,1003.5
2022-09-10T14:08:23.000Z,1003.6
2022-09-10T14:09:39.000Z,1003.5
2022-09-10T14:10:55.000Z,1003.6
2022-09-10T14:12:11.000Z,1003.5
2022-09-10T14:13:27.000Z,1003.6
2022-09-10T14:14:43.000Z,1003.5
2022-09-10T14:15:59.000Z,1003.6
2022-09-10T14:17:15.000Z,1003.5
2022-09-10T14:18:31.000Z,1003.5
2022-09-10T14:19:48.000Z,1003.6
2022-09-10T14:21:04.000Z,1003.5
2022-09-10T14:22:20.000Z,1003.6
2022-09-10T14:23:36.000Z,1003.7
2022-09-10T14:24:52.000Z,1003.5
2022-09-10T14:26:09.000Z,1003.5
2022-09-10T14:27:25.000Z,1003.6
2022-09-10T14:28:40.000Z,1003.6
2022-09-10T14:29:56.897Z,1003.5
2022-09-10T14:31:12.000Z,1003.6
2022-09-10T14:32:29.000Z,1003.5
2022-09-10T14:33:45.000Z,1003.5
2022-09-10T14:35:01.000Z,1003.5
2022-09-10T14:36:17.000Z,1003.5
2022-09-10T14:37:33.000Z,1003.5
2022-09-10T14:38:49.000Z,1003.5
2022-09-10T14:40:06.000Z,1003.4
2022-09-10T14:41:22.000Z,1003.4
2022-09-10T14:42:38.000Z,1003.4
2022-09-10T14:43:54.000Z,1003.5
2022-09-10T14:45:09.000Z,1003.5
2022-09-10T14:46:26.000Z,1003.5
2022-09-10T14:47:42.000Z,1003.5
2022-09-10T14:48:58.000Z,1003.5
2022-09-10T14:50:14.000Z,1003.5
2022-09-10T14:51:30.000Z,1003.5
2022-09-10T14:52:47.000Z,1003.6
2022-09-10T14:54:03.000Z,1003.6
2022-09-10T14:55:19.000Z,1003.5
2022-09-10T14:56:35.000Z,1003.5
2022-09-10T14:57:51.000Z,1003.5
2022-09-10T14:59:08.000Z,1003.4
2022-09-10T15:00:24.000Z,1003.5
2022-09-10T15:01:39.000Z,1003.5
2022-09-10T15:02:55.000Z,1003.4
2022-09-10T15:04:11.000Z,1003.5
2022-09-10T15:05:27.000Z,1003.5
2022-09-10T15:06:44.000Z,1003.6
2022-09-10T15:08:00.000Z,1003.5
2022-09-10T15:09:16.000Z,1003.5
2022-09-10T15:10:32.000Z,1003.5
2022-09-10T15:11:48.000Z,1003.5
2022-09-10T15:13:05.000Z,1003.5
2022-09-10T15:14:21.000Z,1003.6
2022-09-10T15:15:37.000Z,1003.6
2022-09-10T15:16:53.000Z,1003.6
2022-09-10T15:18:08.000Z,1003.5
2022-09-10T15:19:25.000Z,1003.5
2022-09-10T15:20:41.000Z,1003.5
2022-09-10T15:21:57.000Z,1003.6
2022-09-10T15:23:13.000Z,1003.6
2022-09-10T15:24:29.000Z,1003.5
2022-09-10T15:25:46.000Z,1003.6
2022-09-10T15:27:02.000Z,1003.6
2022-09-10T15:28:18.000Z,1003.6
2022-09-10T15:29:34.000Z,1003.6
2022-09-10T15:30:50.000Z,1003.6
2022-09-10T15:32:06.000Z,1003.7
2022-09-10T15:33:23.000Z,1003.6
2022-09-10T15:34:38.000Z,1003.7
2022-09-10T15:35:54.000Z,1003.6
2022-09-10T15:37:10.000Z,1003.7
2022-09-10T15:38:26.000Z,1003.6
2022-09-10T15:39:43.000Z,1003.6
2022-09-10T15:40:59.000Z,1003.6
2022-09-10T15:42:15.000Z,1003.5
2022-09-10T15:43:31.000Z,1003.6
2022-09-10T15:44:47.000Z,1003.6
2022-09-10T15:46:04.000Z,1003.6
2022-09-10T15:47:20.000Z,1003.5
2022-09-10T15:48:36.000Z,1003.5
2022-09-10T15:49:52.000Z,1003.5